sensor_id;sensor_type;location;lat;lon;timestamp;P1;durP1;ratioP1;P2;durP2;ratioP2
6983;SDS011;3532;51.118;7.210;2022-10-20T00:00:56;8.57;;;7.67;;
6983;SDS011;3532;51.118;7.210;2022-10-20T00:03:22;9.93;;;8.60;;
6983;SDS011;3532;51.118;7.210;2022-10-20T00:05:47;9.87;;;6.93;;
6983;SDS011;3532;51.118;7.210;2022-10-20T00:08:13;8.90;;;8.00;;
6983;SDS011;3532;51.118;7.210;2022-10-20T00:10:38;9.73;;;6.90;;
6983;SDS011;3532;51.118;7.210;2022-10-20T00:13:03;8.80;;;7.37;;
6983;SDS011;3532;51.118;7.210;2022-10-20T00:15:29;10.60;;;7.80;;
6983;SDS011;3532;51.118;7.210;2022-10-20T00:17:54;10.77;;;7.70;;
6983;SDS011;3532;51.118;7.210;2022-10-20T00:20:19;8.77;;;7.00;;
6983;SDS011;3532;51.118;7.210;2022-10-20T00:22:45;9.23;;;6.90;;
6983;SDS011;3532;51.118;7.210;2022-10-20T00:25:10;8.23;;;7.37;;
6983;SDS011;3532;51.118;7.210;2022-10-20T00:27:35;9.07;;;7.43;;
6983;SDS011;3532;51.118;7.210;2022-10-20T00:30:01;14.33;;;7.53;;
6983;SDS011;3532;51.118;7.210;2022-10-20T00:32:26;11.70;;;8.17;;
6983;SDS011;3532;51.118;7.210;2022-10-20T00:34:53;8.53;;;7.70;;
6983;SDS011;3532;51.118;7.210;2022-10-20T00:37:19;8.73;;;7.83;;
6983;SDS011;3532;51.118;7.210;2022-10-20T00:39:44;10.57;;;8.23;;
6983;SDS011;3532;51.118;7.210;2022-10-20T00:42:12;11.37;;;8.07;;
6983;SDS011;3532;51.118;7.210;2022-10-20T00:47:15;11.07;;;7.30;;
6983;SDS011;3532;51.118;7.210;2022-10-20T00:50:24;9.53;;;7.77;;
6983;SDS011;3532;51.118;7.210;2022-10-20T00:52:50;11.43;;;7.77;;
6983;SDS011;3532;51.118;7.210;2022-10-20T00:55:17;10.53;;;7.57;;
6983;SDS011;3532;51.118;7.210;2022-10-20T00:57:45;9.73;;;7.50;;
6983;SDS011;3532;51.118;7.210;2022-10-20T01:00:13;11.27;;;8.10;;
6983;SDS011;3532;51.118;7.210;2022-10-20T01:02:39;9.20;;;7.70;;
6983;SDS011;3532;51.118;7.210;2022-10-20T01:05:05;12.13;;;7.37;;
6983;SDS011;3532;51.118;7.210;2022-10-20T01:07:30;13.13;;;8.67;;
6983;SDS011;3532;51.118;7.210;2022-10-20T01:09:56;10.27;;;8.40;;
6983;SDS011;3532;51.118;7.210;2022-10-20T01:12:29;10.43;;;7.60;;
6983;SDS011;3532;51.118;7.210;2022-10-20T01:15:08;10.70;;;7.70;;
6983;SDS011;3532;51.118;7.210;2022-10-20T01:25:55;10.40;;;7.77;;
6983;SDS011;3532;51.118;7.210;2022-10-20T01:28:46;12.40;;;8.10;;
6983;SDS011;3532;51.118;7.210;2022-10-20T01:33:48;9.10;;;7.50;;
6983;SDS011;3532;51.118;7.210;2022-10-20T01:36:21;8.63;;;7.73;;
6983;SDS011;3532;51.118;7.210;2022-10-20T01:38:53;11.17;;;8.53;;
6983;SDS011;3532;51.118;7.210;2022-10-20T01:44:04;13.87;;;8.73;;
6983;SDS011;3532;51.118;7.210;2022-10-20T01:46:32;8.73;;;7.03;;
6983;SDS011;3532;51.118;7.210;2022-10-20T01:48:59;11.00;;;8.23;;
6983;SDS011;3532;51.118;7.210;2022-10-20T01:51:25;7.60;;;6.90;;
6983;SDS011;3532;51.118;7.210;2022-10-20T01:53:50;10.07;;;7.80;;
6983;SDS011;3532;51.118;7.210;2022-10-20T01:56:19;8.03;;;7.23;;
6983;SDS011;3532;51.118;7.210;2022-10-20T02:01:43;8.97;;;7.40;;
6983;SDS011;3532;51.118;7.210;2022-10-20T02:04:17;8.97;;;8.10;;
6983;SDS011;3532;51.118;7.210;2022-10-20T02:09:18;8.43;;;6.93;;
6983;SDS011;3532;51.118;7.210;2022-10-20T02:11:52;8.93;;;7.87;;
6983;SDS011;3532;51.118;7.210;2022-10-20T02:14:20;11.63;;;7.77;;
6983;SDS011;3532;51.118;7.210;2022-10-20T02:16:48;8.73;;;6.97;;
6983;SDS011;3532;51.118;7.210;2022-10-20T02:19:16;12.77;;;7.40;;
6983;SDS011;3532;51.118;7.210;2022-10-20T02:21:43;10.03;;;7.77;;
6983;SDS011;3532;51.118;7.210;2022-10-20T02:24:09;10.23;;;6.83;;
6983;SDS011;3532;51.118;7.210;2022-10-20T02:26:38;7.17;;;6.47;;
6983;SDS011;3532;51.118;7.210;2022-10-20T02:29:05;9.03;;;7.07;;
6983;SDS011;3532;51.118;7.210;2022-10-20T02:31:35;10.60;;;7.77;;
6983;SDS011;3532;51.118;7.210;2022-10-20T02:34:00;10.33;;;7.23;;
6983;SDS011;3532;51.118;7.210;2022-10-20T02:36:27;8.27;;;6.93;;
6983;SDS011;3532;51.118;7.210;2022-10-20T02:38:53;7.33;;;6.63;;
6983;SDS011;3532;51.118;7.210;2022-10-20T02:41:18;8.13;;;6.70;;
6983;SDS011;3532;51.118;7.210;2022-10-20T02:43:44;10.03;;;7.53;;
6983;SDS011;3532;51.118;7.210;2022-10-20T02:46:09;8.20;;;7.20;;
6983;SDS011;3532;51.118;7.210;2022-10-20T02:48:34;7.63;;;6.83;;
6983;SDS011;3532;51.118;7.210;2022-10-20T02:51:02;7.87;;;6.80;;
6983;SDS011;3532;51.118;7.210;2022-10-20T02:53:28;8.90;;;6.80;;
6983;SDS011;3532;51.118;7.210;2022-10-20T02:55:53;7.83;;;6.00;;
6983;SDS011;3532;51.118;7.210;2022-10-20T02:58:18;7.83;;;6.57;;
6983;SDS011;3532;51.118;7.210;2022-10-20T03:00:43;9.03;;;7.33;;
6983;SDS011;3532;51.118;7.210;2022-10-20T03:03:09;11.90;;;6.80;;
6983;SDS011;3532;51.118;7.210;2022-10-20T03:05:37;10.67;;;6.97;;
6983;SDS011;3532;51.118;7.210;2022-10-20T03:08:04;8.00;;;6.20;;
6983;SDS011;3532;51.118;7.210;2022-10-20T03:10:29;8.20;;;7.43;;
6983;SDS011;3532;51.118;7.210;2022-10-20T03:12:54;9.90;;;6.90;;
6983;SDS011;3532;51.118;7.210;2022-10-20T03:15:20;8.33;;;7.23;;
6983;SDS011;3532;51.118;7.210;2022-10-20T03:17:45;7.77;;;7.03;;
6983;SDS011;3532;51.118;7.210;2022-10-20T03:20:10;7.67;;;6.97;;
6983;SDS011;3532;51.118;7.210;2022-10-20T03:22:36;7.70;;;6.90;;
6983;SDS011;3532;51.118;7.210;2022-10-20T03:25:01;10.83;;;7.33;;
6983;SDS011;3532;51.118;7.210;2022-10-20T03:27:26;9.47;;;7.20;;
6983;SDS011;3532;51.118;7.210;2022-10-20T03:29:52;9.70;;;6.93;;
6983;SDS011;3532;51.118;7.210;2022-10-20T03:32:17;7.80;;;7.00;;
6983;SDS011;3532;51.118;7.210;2022-10-20T03:34:42;6.97;;;6.30;;
6983;SDS011;3532;51.118;7.210;2022-10-20T03:37:07;7.90;;;7.03;;
6983;SDS011;3532;51.118;7.210;2022-10-20T03:39:33;14.47;;;6.97;;
6983;SDS011;3532;51.118;7.210;2022-10-20T03:41:58;7.17;;;6.57;;
6983;SDS011;3532;51.118;7.210;2022-10-20T03:44:23;8.70;;;6.80;;
6983;SDS011;3532;51.118;7.210;2022-10-20T03:46:49;8.53;;;7.13;;
6983;SDS011;3532;51.118;7.210;2022-10-20T03:49:14;7.60;;;6.60;;
6983;SDS011;3532;51.118;7.210;2022-10-20T03:51:39;8.97;;;7.03;;
6983;SDS011;3532;51.118;7.210;2022-10-20T03:54:05;7.50;;;6.73;;
6983;SDS011;3532;51.118;7.210;2022-10-20T03:56:30;8.40;;;6.43;;
6983;SDS011;3532;51.118;7.210;2022-10-20T03:58:55;8.83;;;6.57;;
6983;SDS011;3532;51.118;7.210;2022-10-20T04:01:22;9.13;;;6.57;;
6983;SDS011;3532;51.118;7.210;2022-10-20T04:03:50;8.57;;;7.67;;
6983;SDS011;3532;51.118;7.210;2022-10-20T04:06:16;8.90;;;6.57;;
6983;SDS011;3532;51.118;7.210;2022-10-20T04:08:41;10.23;;;6.70;;
6983;SDS011;3532;51.118;7.210;2022-10-20T04:11:06;10.17;;;6.83;;
6983;SDS011;3532;51.118;7.210;2022-10-20T04:13:32;9.83;;;6.20;;
6983;SDS011;3532;51.118;7.210;2022-10-20T04:15:57;7.20;;;6.50;;
6983;SDS011;3532;51.118;7.210;2022-10-20T04:18:22;7.10;;;6.37;;
6983;SDS011;3532;51.118;7.210;2022-10-20T04:20:48;6.97;;;6.33;;
6983;SDS011;3532;51.118;7.210;2022-10-20T04:23:13;8.53;;;6.33;;
6983;SDS011;3532;51.118;7.210;2022-10-20T04:25:39;6.47;;;5.23;;
6983;SDS011;3532;51.118;7.210;2022-10-20T04:28:09;7.40;;;6.47;;
6983;SDS011;3532;51.118;7.210;2022-10-20T04:30:35;10.17;;;6.77;;
6983;SDS011;3532;51.118;7.210;2022-10-20T04:33:02;8.17;;;6.27;;
6983;SDS011;3532;51.118;7.210;2022-10-20T04:35:28;8.47;;;6.43;;
6983;SDS011;3532;51.118;7.210;2022-10-20T04:37:53;6.80;;;6.10;;
6983;SDS011;3532;51.118;7.210;2022-10-20T04:40:18;8.27;;;6.77;;
6983;SDS011;3532;51.118;7.210;2022-10-20T04:42:44;6.20;;;5.70;;
6983;SDS011;3532;51.118;7.210;2022-10-20T04:45:09;7.73;;;6.27;;
6983;SDS011;3532;51.118;7.210;2022-10-20T04:47:34;6.80;;;6.20;;
6983;SDS011;3532;51.118;7.210;2022-10-20T04:50:01;8.73;;;5.97;;
6983;SDS011;3532;51.118;7.210;2022-10-20T04:52:27;9.40;;;6.70;;
6983;SDS011;3532;51.118;7.210;2022-10-20T04:54:53;8.50;;;6.37;;
6983;SDS011;3532;51.118;7.210;2022-10-20T04:57:18;9.90;;;6.93;;
6983;SDS011;3532;51.118;7.210;2022-10-20T04:59:44;6.90;;;6.20;;
6983;SDS011;3532;51.118;7.210;2022-10-20T05:02:09;8.33;;;6.30;;
6983;SDS011;3532;51.118;7.210;2022-10-20T05:04:35;9.90;;;6.40;;
6983;SDS011;3532;51.118;7.210;2022-10-20T05:07:00;8.10;;;6.43;;
6983;SDS011;3532;51.118;7.210;2022-10-20T05:09:26;7.07;;;6.37;;
6983;SDS011;3532;51.118;7.210;2022-10-20T05:11:51;8.90;;;6.57;;
6983;SDS011;3532;51.118;7.210;2022-10-20T05:14:17;9.60;;;6.40;;
6983;SDS011;3532;51.118;7.210;2022-10-20T05:16:43;8.87;;;6.37;;
6983;SDS011;3532;51.118;7.210;2022-10-20T05:19:08;8.23;;;6.50;;
6983;SDS011;3532;51.118;7.210;2022-10-20T05:21:34;7.17;;;6.37;;
6983;SDS011;3532;51.118;7.210;2022-10-20T05:24:01;8.63;;;6.50;;
6983;SDS011;3532;51.118;7.210;2022-10-20T05:26:29;7.33;;;6.53;;
6983;SDS011;3532;51.118;7.210;2022-10-20T05:28:59;9.23;;;7.17;;
6983;SDS011;3532;51.118;7.210;2022-10-20T05:31:25;7.47;;;6.73;;
6983;SDS011;3532;51.118;7.210;2022-10-20T05:33:51;7.63;;;5.63;;
6983;SDS011;3532;51.118;7.210;2022-10-20T05:36:18;6.57;;;5.93;;
6983;SDS011;3532;51.118;7.210;2022-10-20T05:38:45;9.17;;;6.63;;
6983;SDS011;3532;51.118;7.210;2022-10-20T05:41:12;7.27;;;6.57;;
6983;SDS011;3532;51.118;7.210;2022-10-20T05:43:38;7.50;;;6.10;;
6983;SDS011;3532;51.118;7.210;2022-10-20T05:46:04;8.93;;;6.07;;
6983;SDS011;3532;51.118;7.210;2022-10-20T05:48:31;6.97;;;6.23;;
6983;SDS011;3532;51.118;7.210;2022-10-20T05:51:10;8.70;;;6.10;;
6983;SDS011;3532;51.118;7.210;2022-10-20T05:53:36;7.63;;;6.83;;
6983;SDS011;3532;51.118;7.210;2022-10-20T05:56:04;9.03;;;6.13;;
6983;SDS011;3532;51.118;7.210;2022-10-20T05:58:33;9.47;;;7.57;;
6983;SDS011;3532;51.118;7.210;2022-10-20T06:01:08;9.47;;;6.70;;
6983;SDS011;3532;51.118;7.210;2022-10-20T06:03:40;9.97;;;7.07;;
6983;SDS011;3532;51.118;7.210;2022-10-20T06:06:05;9.00;;;6.73;;
6983;SDS011;3532;51.118;7.210;2022-10-20T06:08:31;10.80;;;6.30;;
6983;SDS011;3532;51.118;7.210;2022-10-20T06:11:01;7.37;;;6.67;;
6983;SDS011;3532;51.118;7.210;2022-10-20T06:13:31;10.77;;;7.40;;
6983;SDS011;3532;51.118;7.210;2022-10-20T06:16:04;11.90;;;7.43;;
6983;SDS011;3532;51.118;7.210;2022-10-20T06:18:34;8.90;;;6.90;;
6983;SDS011;3532;51.118;7.210;2022-10-20T06:21:03;9.43;;;8.13;;
6983;SDS011;3532;51.118;7.210;2022-10-20T06:23:30;7.13;;;6.43;;
6983;SDS011;3532;51.118;7.210;2022-10-20T06:26:00;11.10;;;7.87;;
6983;SDS011;3532;51.118;7.210;2022-10-20T06:28:28;7.47;;;6.77;;
6983;SDS011;3532;51.118;7.210;2022-10-20T06:30:54;7.93;;;7.13;;
6983;SDS011;3532;51.118;7.210;2022-10-20T06:33:19;12.93;;;8.27;;
6983;SDS011;3532;51.118;7.210;2022-10-20T06:35:45;10.70;;;7.47;;
6983;SDS011;3532;51.118;7.210;2022-10-20T06:38:10;8.87;;;7.97;;
6983;SDS011;3532;51.118;7.210;2022-10-20T06:40:35;8.60;;;7.70;;
6983;SDS011;3532;51.118;7.210;2022-10-20T06:43:00;9.50;;;8.00;;
6983;SDS011;3532;51.118;7.210;2022-10-20T06:45:26;10.43;;;8.57;;
6983;SDS011;3532;51.118;7.210;2022-10-20T06:47:51;8.30;;;7.43;;
6983;SDS011;3532;51.118;7.210;2022-10-20T06:50:16;9.90;;;7.97;;
6983;SDS011;3532;51.118;7.210;2022-10-20T06:52:42;9.43;;;8.23;;
6983;SDS011;3532;51.118;7.210;2022-10-20T06:55:07;8.90;;;7.83;;
6983;SDS011;3532;51.118;7.210;2022-10-20T06:57:33;9.37;;;7.77;;
6983;SDS011;3532;51.118;7.210;2022-10-20T06:59:58;9.87;;;7.80;;
6983;SDS011;3532;51.118;7.210;2022-10-20T07:02:23;11.83;;;8.27;;
6983;SDS011;3532;51.118;7.210;2022-10-20T07:04:49;10.33;;;8.30;;
6983;SDS011;3532;51.118;7.210;2022-10-20T07:07:14;9.10;;;8.03;;
6983;SDS011;3532;51.118;7.210;2022-10-20T07:09:39;11.17;;;8.13;;
6983;SDS011;3532;51.118;7.210;2022-10-20T07:12:05;8.90;;;8.00;;
6983;SDS011;3532;51.118;7.210;2022-10-20T07:14:30;7.83;;;7.03;;
6983;SDS011;3532;51.118;7.210;2022-10-20T07:16:55;12.83;;;8.20;;
6983;SDS011;3532;51.118;7.210;2022-10-20T07:19:21;8.17;;;7.30;;
6983;SDS011;3532;51.118;7.210;2022-10-20T07:21:46;8.87;;;7.43;;
6983;SDS011;3532;51.118;7.210;2022-10-20T07:24:11;9.13;;;7.47;;
6983;SDS011;3532;51.118;7.210;2022-10-20T07:26:38;8.90;;;8.00;;
6983;SDS011;3532;51.118;7.210;2022-10-20T07:29:04;8.40;;;7.60;;
6983;SDS011;3532;51.118;7.210;2022-10-20T07:31:32;13.73;;;7.67;;
6983;SDS011;3532;51.118;7.210;2022-10-20T07:34:01;7.87;;;7.17;;
6983;SDS011;3532;51.118;7.210;2022-10-20T07:36:27;9.40;;;8.53;;
6983;SDS011;3532;51.118;7.210;2022-10-20T07:38:55;12.50;;;9.20;;
6983;SDS011;3532;51.118;7.210;2022-10-20T07:41:22;14.90;;;8.47;;
6983;SDS011;3532;51.118;7.210;2022-10-20T07:43:48;12.17;;;8.50;;
6983;SDS011;3532;51.118;7.210;2022-10-20T07:46:13;9.83;;;8.90;;
6983;SDS011;3532;51.118;7.210;2022-10-20T07:48:39;10.70;;;7.87;;
6983;SDS011;3532;51.118;7.210;2022-10-20T07:51:15;11.67;;;8.60;;
6983;SDS011;3532;51.118;7.210;2022-10-20T07:53:50;11.23;;;8.70;;
6983;SDS011;3532;51.118;7.210;2022-10-20T07:56:20;10.07;;;8.23;;
6983;SDS011;3532;51.118;7.210;2022-10-20T07:58:46;8.87;;;7.60;;
6983;SDS011;3532;51.118;7.210;2022-10-20T08:01:12;10.13;;;8.20;;
6983;SDS011;3532;51.118;7.210;2022-10-20T08:03:37;9.37;;;7.03;;
6983;SDS011;3532;51.118;7.210;2022-10-20T08:06:03;9.17;;;7.50;;
6983;SDS011;3532;51.118;7.210;2022-10-20T08:08:28;11.37;;;7.83;;
6983;SDS011;3532;51.118;7.210;2022-10-20T08:10:54;9.13;;;7.93;;
6983;SDS011;3532;51.118;7.210;2022-10-20T08:13:19;9.70;;;7.70;;
6983;SDS011;3532;51.118;7.210;2022-10-20T08:15:45;10.60;;;8.30;;
6983;SDS011;3532;51.118;7.210;2022-10-20T08:18:10;11.30;;;9.00;;
6983;SDS011;3532;51.118;7.210;2022-10-20T08:20:35;8.57;;;7.67;;
6983;SDS011;3532;51.118;7.210;2022-10-20T08:23:01;10.33;;;8.30;;
6983;SDS011;3532;51.118;7.210;2022-10-20T08:25:26;8.93;;;7.80;;
6983;SDS011;3532;51.118;7.210;2022-10-20T08:27:51;11.27;;;9.40;;
6983;SDS011;3532;51.118;7.210;2022-10-20T08:30:17;12.50;;;9.20;;
6983;SDS011;3532;51.118;7.210;2022-10-20T08:32:42;10.80;;;8.23;;
6983;SDS011;3532;51.118;7.210;2022-10-20T08:35:08;9.27;;;8.27;;
6983;SDS011;3532;51.118;7.210;2022-10-20T08:37:33;9.43;;;8.53;;
6983;SDS011;3532;51.118;7.210;2022-10-20T08:40:00;13.80;;;8.57;;
6983;SDS011;3532;51.118;7.210;2022-10-20T08:42:26;9.87;;;8.50;;
6983;SDS011;3532;51.118;7.210;2022-10-20T08:44:51;9.33;;;8.10;;
6983;SDS011;3532;51.118;7.210;2022-10-20T08:47:25;9.77;;;8.27;;
6983;SDS011;3532;51.118;7.210;2022-10-20T08:49:53;10.27;;;8.27;;
6983;SDS011;3532;51.118;7.210;2022-10-20T08:52:19;12.37;;;8.57;;
6983;SDS011;3532;51.118;7.210;2022-10-20T08:54:47;11.30;;;8.63;;
6983;SDS011;3532;51.118;7.210;2022-10-20T08:57:33;9.00;;;8.07;;
6983;SDS011;3532;51.118;7.210;2022-10-20T09:02:36;10.80;;;9.67;;
6983;SDS011;3532;51.118;7.210;2022-10-20T09:05:02;8.80;;;7.97;;
6983;SDS011;3532;51.118;7.210;2022-10-20T09:07:36;9.87;;;8.87;;
6983;SDS011;3532;51.118;7.210;2022-10-20T09:10:05;11.60;;;8.27;;
6983;SDS011;3532;51.118;7.210;2022-10-20T09:12:39;10.43;;;7.77;;
6983;SDS011;3532;51.118;7.210;2022-10-20T09:15:08;10.37;;;9.20;;
6983;SDS011;3532;51.118;7.210;2022-10-20T09:17:38;11.13;;;9.00;;
6983;SDS011;3532;51.118;7.210;2022-10-20T09:20:04;11.97;;;8.90;;
6983;SDS011;3532;51.118;7.210;2022-10-20T09:22:30;10.47;;;9.20;;
6983;SDS011;3532;51.118;7.210;2022-10-20T09:24:56;10.13;;;8.77;;
6983;SDS011;3532;51.118;7.210;2022-10-20T09:29:55;11.33;;;9.10;;
6983;SDS011;3532;51.118;7.210;2022-10-20T09:32:33;17.13;;;8.80;;
6983;SDS011;3532;51.118;7.210;2022-10-20T09:37:40;9.70;;;8.37;;
6983;SDS011;3532;51.118;7.210;2022-10-20T09:40:11;10.80;;;9.03;;
6983;SDS011;3532;51.118;7.210;2022-10-20T09:42:39;9.70;;;8.70;;
6983;SDS011;3532;51.118;7.210;2022-10-20T09:45:20;11.53;;;9.53;;
6983;SDS011;3532;51.118;7.210;2022-10-20T09:47:47;12.57;;;8.40;;
6983;SDS011;3532;51.118;7.210;2022-10-20T09:50:25;11.53;;;7.80;;
6983;SDS011;3532;51.118;7.210;2022-10-20T09:52:53;8.93;;;7.97;;
6983;SDS011;3532;51.118;7.210;2022-10-20T09:55:22;10.13;;;9.13;;
6983;SDS011;3532;51.118;7.210;2022-10-20T09:57:51;9.20;;;8.30;;
6983;SDS011;3532;51.118;7.210;2022-10-20T10:00:37;12.37;;;9.03;;
6983;SDS011;3532;51.118;7.210;2022-10-20T10:03:18;10.30;;;9.30;;
6983;SDS011;3532;51.118;7.210;2022-10-20T10:06:18;11.40;;;9.20;;
6983;SDS011;3532;51.118;7.210;2022-10-20T10:08:45;9.93;;;9.00;;
6983;SDS011;3532;51.118;7.210;2022-10-20T10:11:13;10.60;;;9.60;;
6983;SDS011;3532;51.118;7.210;2022-10-20T10:13:47;11.40;;;9.17;;
6983;SDS011;3532;51.118;7.210;2022-10-20T10:16:15;14.37;;;9.87;;
6983;SDS011;3532;51.118;7.210;2022-10-20T10:19:03;11.97;;;10.87;;
6983;SDS011;3532;51.118;7.210;2022-10-20T10:21:46;11.40;;;10.27;;
6983;SDS011;3532;51.118;7.210;2022-10-20T10:24:26;10.73;;;9.57;;
6983;SDS011;3532;51.118;7.210;2022-10-20T10:26:53;12.23;;;9.47;;
6983;SDS011;3532;51.118;7.210;2022-10-20T10:31:50;10.67;;;9.57;;
6983;SDS011;3532;51.118;7.210;2022-10-20T10:37:20;12.07;;;9.70;;
6983;SDS011;3532;51.118;7.210;2022-10-20T10:39:47;12.03;;;10.43;;
6983;SDS011;3532;51.118;7.210;2022-10-20T10:44:40;12.63;;;10.07;;
6983;SDS011;3532;51.118;7.210;2022-10-20T10:55:53;14.07;;;9.97;;
6983;SDS011;3532;51.118;7.210;2022-10-20T10:58:28;13.20;;;10.73;;
6983;SDS011;3532;51.118;7.210;2022-10-20T11:01:02;11.93;;;10.03;;
6983;SDS011;3532;51.118;7.210;2022-10-20T11:09:04;12.37;;;10.73;;
6983;SDS011;3532;51.118;7.210;2022-10-20T11:12:01;12.47;;;11.17;;
6983;SDS011;3532;51.118;7.210;2022-10-20T11:14:39;12.10;;;10.50;;
6983;SDS011;3532;51.118;7.210;2022-10-20T11:25:24;17.20;;;11.57;;
6983;SDS011;3532;51.118;7.210;2022-10-20T11:27:51;13.03;;;10.73;;
6983;SDS011;3532;51.118;7.210;2022-10-20T11:30:19;15.73;;;12.17;;
6983;SDS011;3532;51.118;7.210;2022-10-20T11:38:16;14.83;;;11.53;;
6983;SDS011;3532;51.118;7.210;2022-10-20T11:40:49;13.23;;;11.80;;
6983;SDS011;3532;51.118;7.210;2022-10-20T11:43:30;13.77;;;12.33;;
6983;SDS011;3532;51.118;7.210;2022-10-20T11:45:59;15.27;;;12.50;;
6983;SDS011;3532;51.118;7.210;2022-10-20T11:48:39;16.07;;;13.23;;
6983;SDS011;3532;51.118;7.210;2022-10-20T11:53:44;12.90;;;11.70;;
6983;SDS011;3532;51.118;7.210;2022-10-20T11:56:34;15.77;;;13.23;;
6983;SDS011;3532;51.118;7.210;2022-10-20T12:01:40;14.27;;;11.60;;
6983;SDS011;3532;51.118;7.210;2022-10-20T12:04:39;17.37;;;13.80;;
6983;SDS011;3532;51.118;7.210;2022-10-20T12:07:37;15.43;;;13.83;;
6983;SDS011;3532;51.118;7.210;2022-10-20T12:15:47;17.47;;;14.83;;
6983;SDS011;3532;51.118;7.210;2022-10-20T12:18:19;18.30;;;13.87;;
6983;SDS011;3532;51.118;7.210;2022-10-20T12:20:50;18.90;;;14.87;;
6983;SDS011;3532;51.118;7.210;2022-10-20T12:28:55;16.27;;;14.53;;
6983;SDS011;3532;51.118;7.210;2022-10-20T12:31:21;22.13;;;14.60;;
6983;SDS011;3532;51.118;7.210;2022-10-20T12:38:44;18.63;;;14.07;;
6983;SDS011;3532;51.118;7.210;2022-10-20T12:41:11;16.73;;;14.90;;
6983;SDS011;3532;51.118;7.210;2022-10-20T12:43:51;18.53;;;14.40;;
6983;SDS011;3532;51.118;7.210;2022-10-20T12:46:19;19.63;;;16.00;;
6983;SDS011;3532;51.118;7.210;2022-10-20T12:48:46;19.60;;;15.97;;
6983;SDS011;3532;51.118;7.210;2022-10-20T12:51:20;21.40;;;15.77;;
6983;SDS011;3532;51.118;7.210;2022-10-20T12:53:51;17.40;;;15.60;;
6983;SDS011;3532;51.118;7.210;2022-10-20T12:56:19;19.97;;;15.70;;
6983;SDS011;3532;51.118;7.210;2022-10-20T13:15:42;18.57;;;16.40;;
6983;SDS011;3532;51.118;7.210;2022-10-20T13:26:30;20.80;;;14.90;;
6983;SDS011;3532;51.118;7.210;2022-10-20T13:29:01;22.07;;;16.23;;
6983;SDS011;3532;51.118;7.210;2022-10-20T13:36:51;21.67;;;15.90;;
6983;SDS011;3532;51.118;7.210;2022-10-20T13:52:56;17.97;;;15.00;;
6983;SDS011;3532;51.118;7.210;2022-10-20T13:55:24;21.23;;;15.67;;
6983;SDS011;3532;51.118;7.210;2022-10-20T13:58:24;19.87;;;15.57;;
6983;SDS011;3532;51.118;7.210;2022-10-20T14:00:52;19.90;;;15.43;;
6983;SDS011;3532;51.118;7.210;2022-10-20T14:03:20;19.17;;;17.00;;
6983;SDS011;3532;51.118;7.210;2022-10-20T14:05:45;18.43;;;15.83;;
6983;SDS011;3532;51.118;7.210;2022-10-20T14:08:12;20.30;;;16.73;;
6983;SDS011;3532;51.118;7.210;2022-10-20T14:13:24;18.47;;;16.40;;
6983;SDS011;3532;51.118;7.210;2022-10-20T14:15:52;17.60;;;15.90;;
6983;SDS011;3532;51.118;7.210;2022-10-20T14:18:26;20.00;;;17.13;;
6983;SDS011;3532;51.118;7.210;2022-10-20T14:20:57;18.87;;;16.67;;
6983;SDS011;3532;51.118;7.210;2022-10-20T14:23:38;20.50;;;17.97;;
6983;SDS011;3532;51.118;7.210;2022-10-20T14:26:06;26.07;;;19.47;;
6983;SDS011;3532;51.118;7.210;2022-10-20T14:28:36;21.60;;;18.10;;
6983;SDS011;3532;51.118;7.210;2022-10-20T14:31:03;19.40;;;17.00;;
6983;SDS011;3532;51.118;7.210;2022-10-20T14:33:28;21.50;;;16.73;;
6983;SDS011;3532;51.118;7.210;2022-10-20T14:35:55;22.80;;;16.20;;
6983;SDS011;3532;51.118;7.210;2022-10-20T14:38:23;18.83;;;15.97;;
6983;SDS011;3532;51.118;7.210;2022-10-20T14:40:53;19.17;;;17.00;;
6983;SDS011;3532;51.118;7.210;2022-10-20T14:43:21;18.33;;;15.67;;
6983;SDS011;3532;51.118;7.210;2022-10-20T14:45:52;20.50;;;16.37;;
6983;SDS011;3532;51.118;7.210;2022-10-20T14:48:18;18.23;;;16.33;;
6983;SDS011;3532;51.118;7.210;2022-10-20T14:50:44;19.93;;;16.23;;
6983;SDS011;3532;51.118;7.210;2022-10-20T14:53:17;20.27;;;16.30;;
6983;SDS011;3532;51.118;7.210;2022-10-20T14:55:57;18.43;;;16.43;;
6983;SDS011;3532;51.118;7.210;2022-10-20T15:04:04;26.87;;;16.03;;
6983;SDS011;3532;51.118;7.210;2022-10-20T15:06:40;18.57;;;16.60;;
6983;SDS011;3532;51.118;7.210;2022-10-20T15:09:13;19.83;;;17.67;;
6983;SDS011;3532;51.118;7.210;2022-10-20T15:11:42;21.50;;;17.87;;
6983;SDS011;3532;51.118;7.210;2022-10-20T15:14:11;22.13;;;17.00;;
6983;SDS011;3532;51.118;7.210;2022-10-20T15:22:11;18.10;;;16.20;;
6983;SDS011;3532;51.118;7.210;2022-10-20T15:24:37;19.80;;;17.70;;
6983;SDS011;3532;51.118;7.210;2022-10-20T15:27:03;25.80;;;18.60;;
6983;SDS011;3532;51.118;7.210;2022-10-20T15:29:29;22.00;;;17.73;;
6983;SDS011;3532;51.118;7.210;2022-10-20T15:31:54;22.67;;;18.93;;
6983;SDS011;3532;51.118;7.210;2022-10-20T15:34:20;20.67;;;16.00;;
6983;SDS011;3532;51.118;7.210;2022-10-20T15:36:45;23.13;;;17.30;;
6983;SDS011;3532;51.118;7.210;2022-10-20T15:39:11;19.63;;;16.53;;
6983;SDS011;3532;51.118;7.210;2022-10-20T15:41:36;21.07;;;17.80;;
6983;SDS011;3532;51.118;7.210;2022-10-20T15:44:09;19.87;;;16.83;;
6983;SDS011;3532;51.118;7.210;2022-10-20T15:46:37;19.30;;;16.87;;
6983;SDS011;3532;51.118;7.210;2022-10-20T15:49:02;25.10;;;18.30;;
6983;SDS011;3532;51.118;7.210;2022-10-20T15:51:28;24.33;;;17.17;;
6983;SDS011;3532;51.118;7.210;2022-10-20T15:53:55;21.57;;;18.93;;
6983;SDS011;3532;51.118;7.210;2022-10-20T15:56:21;20.87;;;17.63;;
6983;SDS011;3532;51.118;7.210;2022-10-20T15:58:46;24.80;;;18.63;;
6983;SDS011;3532;51.118;7.210;2022-10-20T16:01:14;22.60;;;16.03;;
6983;SDS011;3532;51.118;7.210;2022-10-20T16:03:40;24.87;;;17.23;;
6983;SDS011;3532;51.118;7.210;2022-10-20T16:06:07;21.70;;;18.43;;
6983;SDS011;3532;51.118;7.210;2022-10-20T16:08:33;20.77;;;16.93;;
6983;SDS011;3532;51.118;7.210;2022-10-20T16:10:59;24.00;;;18.30;;
6983;SDS011;3532;51.118;7.210;2022-10-20T16:13:24;26.50;;;18.20;;
6983;SDS011;3532;51.118;7.210;2022-10-20T16:15:50;23.20;;;16.43;;
6983;SDS011;3532;51.118;7.210;2022-10-20T16:18:15;22.87;;;19.17;;
6983;SDS011;3532;51.118;7.210;2022-10-20T16:20:40;24.40;;;17.00;;
6983;SDS011;3532;51.118;7.210;2022-10-20T16:23:05;19.67;;;16.90;;
6983;SDS011;3532;51.118;7.210;2022-10-20T16:25:31;21.90;;;17.00;;
6983;SDS011;3532;51.118;7.210;2022-10-20T16:27:56;23.23;;;16.60;;
6983;SDS011;3532;51.118;7.210;2022-10-20T16:30:21;23.23;;;18.90;;
6983;SDS011;3532;51.118;7.210;2022-10-20T16:32:47;20.47;;;17.90;;
6983;SDS011;3532;51.118;7.210;2022-10-20T16:35:12;20.90;;;18.70;;
6983;SDS011;3532;51.118;7.210;2022-10-20T16:37:37;23.80;;;18.40;;
6983;SDS011;3532;51.118;7.210;2022-10-20T16:40:03;20.50;;;18.00;;
6983;SDS011;3532;51.118;7.210;2022-10-20T16:42:28;20.67;;;17.83;;
6983;SDS011;3532;51.118;7.210;2022-10-20T16:44:54;24.43;;;18.63;;
6983;SDS011;3532;51.118;7.210;2022-10-20T16:47:20;23.47;;;18.50;;
6983;SDS011;3532;51.118;7.210;2022-10-20T16:49:45;22.90;;;17.40;;
6983;SDS011;3532;51.118;7.210;2022-10-20T16:52:10;22.00;;;17.57;;
6983;SDS011;3532;51.118;7.210;2022-10-20T16:54:36;25.27;;;18.60;;
6983;SDS011;3532;51.118;7.210;2022-10-20T16:57:01;24.60;;;18.13;;
6983;SDS011;3532;51.118;7.210;2022-10-20T16:59:27;22.07;;;18.00;;
6983;SDS011;3532;51.118;7.210;2022-10-20T17:01:53;22.97;;;17.87;;
6983;SDS011;3532;51.118;7.210;2022-10-20T17:04:18;23.97;;;19.03;;
6983;SDS011;3532;51.118;7.210;2022-10-20T17:06:44;20.47;;;17.10;;
6983;SDS011;3532;51.118;7.210;2022-10-20T17:09:09;22.30;;;18.23;;
6983;SDS011;3532;51.118;7.210;2022-10-20T17:11:34;24.43;;;17.27;;
6983;SDS011;3532;51.118;7.210;2022-10-20T17:14:00;24.30;;;19.70;;
6983;SDS011;3532;51.118;7.210;2022-10-20T17:16:29;25.80;;;18.13;;
6983;SDS011;3532;51.118;7.210;2022-10-20T17:18:56;19.23;;;16.17;;
6983;SDS011;3532;51.118;7.210;2022-10-20T17:21:23;20.73;;;15.97;;
6983;SDS011;3532;51.118;7.210;2022-10-20T17:23:49;24.70;;;18.13;;
6983;SDS011;3532;51.118;7.210;2022-10-20T17:26:18;21.07;;;18.17;;
6983;SDS011;3532;51.118;7.210;2022-10-20T17:28:45;22.93;;;18.20;;
6983;SDS011;3532;51.118;7.210;2022-10-20T17:31:12;24.13;;;18.00;;
6983;SDS011;3532;51.118;7.210;2022-10-20T17:33:38;24.90;;;19.03;;